sensor_id;sensor_type;location;lat;lon;timestamp;P1;durP1;ratioP1;P2;durP2;ratioP2
18194;SDS011;9223;50.988;3.162;2023-06-22T00:04:34;6.68;;;4.60;;
18194;SDS011;9223;50.988;3.162;2023-06-22T00:10:39;5.32;;;4.72;;
18194;SDS011;9223;50.988;3.162;2023-06-22T00:16:43;5.72;;;4.75;;
18194;SDS011;9223;50.988;3.162;2023-06-22T00:22:50;6.35;;;4.57;;
18194;SDS011;9223;50.988;3.162;2023-06-22T00:28:54;6.32;;;5.03;;
18194;SDS011;9223;50.988;3.162;2023-06-22T00:34:58;6.05;;;4.35;;
18194;SDS011;9223;50.988;3.162;2023-06-22T00:41:02;6.60;;;4.70;;
18194;SDS011;9223;50.988;3.162;2023-06-22T00:47:07;6.53;;;4.78;;
18194;SDS011;9223;50.988;3.162;2023-06-22T00:53:10;7.00;;;4.97;;
18194;SDS011;9223;50.988;3.162;2023-06-22T00:59:14;6.00;;;5.30;;
18194;SDS011;9223;50.988;3.162;2023-06-22T01:05:20;7.28;;;4.50;;
18194;SDS011;9223;50.988;3.162;2023-06-22T01:11:26;6.95;;;5.00;;
18194;SDS011;9223;50.988;3.162;2023-06-22T01:17:31;8.60;;;5.07;;
18194;SDS011;9223;50.988;3.162;2023-06-22T01:23:42;8.85;;;5.80;;
18194;SDS011;9223;50.988;3.162;2023-06-22T01:29:53;8.40;;;5.25;;
18194;SDS011;9223;50.988;3.162;2023-06-22T01:36:01;7.88;;;5.88;;
18194;SDS011;9223;50.988;3.162;2023-06-22T01:42:05;6.95;;;5.35;;
18194;SDS011;9223;50.988;3.162;2023-06-22T01:48:10;7.13;;;5.57;;
18194;SDS011;9223;50.988;3.162;2023-06-22T01:54:14;7.70;;;6.18;;
18194;SDS011;9223;50.988;3.162;2023-06-22T02:00:19;6.63;;;5.63;;
18194;SDS011;9223;50.988;3.162;2023-06-22T02:06:27;7.00;;;6.13;;
18194;SDS011;9223;50.988;3.162;2023-06-22T02:12:36;7.82;;;5.97;;
18194;SDS011;9223;50.988;3.162;2023-06-22T02:18:45;9.40;;;6.10;;
18194;SDS011;9223;50.988;3.162;2023-06-22T02:24:50;13.20;;;6.68;;
18194;SDS011;9223;50.988;3.162;2023-06-22T02:30:54;8.85;;;6.15;;
18194;SDS011;9223;50.988;3.162;2023-06-22T02:36:58;11.07;;;7.10;;
18194;SDS011;9223;50.988;3.162;2023-06-22T02:43:03;9.05;;;6.78;;
18194;SDS011;9223;50.988;3.162;2023-06-22T02:49:07;9.20;;;6.57;;
18194;SDS011;9223;50.988;3.162;2023-06-22T02:55:11;10.30;;;6.28;;
18194;SDS011;9223;50.988;3.162;2023-06-22T03:01:16;9.43;;;6.90;;
18194;SDS011;9223;50.988;3.162;2023-06-22T03:07:26;9.35;;;6.30;;
18194;SDS011;9223;50.988;3.162;2023-06-22T03:13:31;8.85;;;6.18;;
18194;SDS011;9223;50.988;3.162;2023-06-22T03:19:36;9.88;;;6.35;;
18194;SDS011;9223;50.988;3.162;2023-06-22T03:25:40;8.75;;;6.25;;
18194;SDS011;9223;50.988;3.162;2023-06-22T03:31:45;10.77;;;6.32;;
18194;SDS011;9223;50.988;3.162;2023-06-22T03:37:50;14.82;;;7.78;;
18194;SDS011;9223;50.988;3.162;2023-06-22T03:43:54;18.02;;;7.85;;
18194;SDS011;9223;50.988;3.162;2023-06-22T03:49:58;10.27;;;6.18;;
18194;SDS011;9223;50.988;3.162;2023-06-22T03:56:03;19.92;;;8.90;;
18194;SDS011;9223;50.988;3.162;2023-06-22T04:02:07;12.70;;;6.07;;
18194;SDS011;9223;50.988;3.162;2023-06-22T04:08:10;12.02;;;6.80;;
18194;SDS011;9223;50.988;3.162;2023-06-22T04:14:15;8.25;;;6.05;;
18194;SDS011;9223;50.988;3.162;2023-06-22T04:20:19;11.60;;;6.45;;
18194;SDS011;9223;50.988;3.162;2023-06-22T04:26:22;9.98;;;5.63;;
18194;SDS011;9223;50.988;3.162;2023-06-22T04:32:27;9.45;;;5.60;;
18194;SDS011;9223;50.988;3.162;2023-06-22T04:38:31;6.70;;;5.45;;
18194;SDS011;9223;50.988;3.162;2023-06-22T04:44:35;6.82;;;5.15;;
18194;SDS011;9223;50.988;3.162;2023-06-22T04:50:39;6.80;;;5.22;;
18194;SDS011;9223;50.988;3.162;2023-06-22T04:56:43;7.07;;;5.22;;
18194;SDS011;9223;50.988;3.162;2023-06-22T05:02:48;5.72;;;5.07;;
18194;SDS011;9223;50.988;3.162;2023-06-22T05:08:53;7.38;;;5.45;;
18194;SDS011;9223;50.988;3.162;2023-06-22T05:14:59;6.03;;;4.78;;
18194;SDS011;9223;50.988;3.162;2023-06-22T05:21:02;8.95;;;5.30;;
18194;SDS011;9223;50.988;3.162;2023-06-22T05:27:08;9.57;;;5.35;;
18194;SDS011;9223;50.988;3.162;2023-06-22T05:33:12;7.53;;;4.35;;
18194;SDS011;9223;50.988;3.162;2023-06-22T05:39:15;5.95;;;4.82;;
18194;SDS011;9223;50.988;3.162;2023-06-22T05:45:20;9.10;;;4.53;;
18194;SDS011;9223;50.988;3.162;2023-06-22T05:51:24;5.32;;;4.18;;
18194;SDS011;9223;50.988;3.162;2023-06-22T05:57:27;5.93;;;4.30;;
18194;SDS011;9223;50.988;3.162;2023-06-22T06:03:32;8.07;;;4.63;;
18194;SDS011;9223;50.988;3.162;2023-06-22T06:09:42;7.65;;;5.28;;
18194;SDS011;9223;50.988;3.162;2023-06-22T06:15:46;5.85;;;4.50;;
18194;SDS011;9223;50.988;3.162;2023-06-22T06:21:50;6.40;;;5.25;;
18194;SDS011;9223;50.988;3.162;2023-06-22T06:27:54;8.10;;;5.53;;
18194;SDS011;9223;50.988;3.162;2023-06-22T06:33:58;8.68;;;5.80;;
18194;SDS011;9223;50.988;3.162;2023-06-22T06:40:03;10.30;;;7.10;;
18194;SDS011;9223;50.988;3.162;2023-06-22T06:46:09;9.73;;;5.57;;
18194;SDS011;9223;50.988;3.162;2023-06-22T06:52:13;11.55;;;6.07;;
18194;SDS011;9223;50.988;3.162;2023-06-22T06:58:18;9.80;;;6.40;;
18194;SDS011;9223;50.988;3.162;2023-06-22T07:04:21;12.68;;;7.10;;
18194;SDS011;9223;50.988;3.162;2023-06-22T07:10:25;11.45;;;6.60;;
18194;SDS011;9223;50.988;3.162;2023-06-22T07:16:31;9.00;;;6.30;;
18194;SDS011;9223;50.988;3.162;2023-06-22T07:22:34;7.85;;;6.57;;
18194;SDS011;9223;50.988;3.162;2023-06-22T07:28:38;9.25;;;7.25;;
18194;SDS011;9223;50.988;3.162;2023-06-22T07:34:43;9.38;;;7.43;;
18194;SDS011;9223;50.988;3.162;2023-06-22T07:40:47;10.48;;;7.57;;
18194;SDS011;9223;50.988;3.162;2023-06-22T07:46:52;10.93;;;7.65;;
18194;SDS011;9223;50.988;3.162;2023-06-22T07:52:57;9.98;;;8.60;;
18194;SDS011;9223;50.988;3.162;2023-06-22T07:59:01;9.95;;;8.38;;
18194;SDS011;9223;50.988;3.162;2023-06-22T08:05:05;10.30;;;8.82;;
18194;SDS011;9223;50.988;3.162;2023-06-22T08:11:31;11.55;;;8.85;;
18194;SDS011;9223;50.988;3.162;2023-06-22T08:17:36;13.52;;;10.38;;
18194;SDS011;9223;50.988;3.162;2023-06-22T08:23:40;12.75;;;10.13;;
18194;SDS011;9223;50.988;3.162;2023-06-22T08:29:45;13.15;;;10.48;;
18194;SDS011;9223;50.988;3.162;2023-06-22T08:35:48;14.98;;;10.20;;
18194;SDS011;9223;50.988;3.162;2023-06-22T08:41:52;12.03;;;10.00;;
18194;SDS011;9223;50.988;3.162;2023-06-22T08:47:58;12.77;;;10.52;;
18194;SDS011;9223;50.988;3.162;2023-06-22T08:54:01;13.98;;;10.85;;
18194;SDS011;9223;50.988;3.162;2023-06-22T09:00:05;15.20;;;11.18;;
18194;SDS011;9223;50.988;3.162;2023-06-22T09:06:18;13.55;;;10.52;;
18194;SDS011;9223;50.988;3.162;2023-06-22T09:12:21;14.45;;;10.60;;
18194;SDS011;9223;50.988;3.162;2023-06-22T09:18:27;16.02;;;11.10;;
18194;SDS011;9223;50.988;3.162;2023-06-22T09:24:32;16.05;;;11.85;;
18194;SDS011;9223;50.988;3.162;2023-06-22T09:30:35;18.08;;;12.88;;
18194;SDS011;9223;50.988;3.162;2023-06-22T09:36:40;13.82;;;11.38;;
18194;SDS011;9223;50.988;3.162;2023-06-22T09:42:45;14.52;;;12.43;;
18194;SDS011;9223;50.988;3.162;2023-06-22T09:48:49;15.15;;;11.80;;
18194;SDS011;9223;50.988;3.162;2023-06-22T09:54:52;15.57;;;11.02;;
18194;SDS011;9223;50.988;3.162;2023-06-22T10:00:57;16.85;;;10.95;;
18194;SDS011;9223;50.988;3.162;2023-06-22T10:07:01;14.35;;;10.35;;
18194;SDS011;9223;50.988;3.162;2023-06-22T10:13:07;12.77;;;9.73;;
18194;SDS011;9223;50.988;3.162;2023-06-22T10:19:13;14.43;;;11.65;;
18194;SDS011;9223;50.988;3.162;2023-06-22T10:25:17;12.18;;;9.88;;
18194;SDS011;9223;50.988;3.162;2023-06-22T10:31:21;13.35;;;11.27;;
18194;SDS011;9223;50.988;3.162;2023-06-22T10:37:26;16.88;;;10.65;;
18194;SDS011;9223;50.988;3.162;2023-06-22T10:43:29;16.30;;;10.43;;
18194;SDS011;9223;50.988;3.162;2023-06-22T10:49:33;14.35;;;9.38;;
18194;SDS011;9223;50.988;3.162;2023-06-22T10:55:39;14.13;;;9.63;;
18194;SDS011;9223;50.988;3.162;2023-06-22T11:01:57;15.85;;;10.82;;
18194;SDS011;9223;50.988;3.162;2023-06-22T11:08:01;14.30;;;9.70;;
18194;SDS011;9223;50.988;3.162;2023-06-22T11:14:06;11.82;;;10.13;;
18194;SDS011;9223;50.988;3.162;2023-06-22T11:20:10;12.10;;;9.02;;
18194;SDS011;9223;50.988;3.162;2023-06-22T11:26:14;13.25;;;9.30;;
18194;SDS011;9223;50.988;3.162;2023-06-22T11:32:19;12.52;;;10.70;;
18194;SDS011;9223;50.988;3.162;2023-06-22T11:38:22;17.98;;;11.02;;
18194;SDS011;9223;50.988;3.162;2023-06-22T11:44:26;13.60;;;9.93;;
18194;SDS011;9223;50.988;3.162;2023-06-22T11:50:31;17.63;;;10.95;;
18194;SDS011;9223;50.988;3.162;2023-06-22T11:56:37;15.88;;;10.68;;
18194;SDS011;9223;50.988;3.162;2023-06-22T12:02:41;15.05;;;11.60;;
18194;SDS011;9223;50.988;3.162;2023-06-22T12:08:46;16.02;;;10.43;;
18194;SDS011;9223;50.988;3.162;2023-06-22T12:14:49;14.57;;;10.55;;
18194;SDS011;9223;50.988;3.162;2023-06-22T12:20:53;18.40;;;11.85;;
18194;SDS011;9223;50.988;3.162;2023-06-22T12:26:58;15.05;;;11.32;;
18194;SDS011;9223;50.988;3.162;2023-06-22T12:33:01;16.27;;;11.82;;
18194;SDS011;9223;50.988;3.162;2023-06-22T12:39:06;17.33;;;12.85;;
18194;SDS011;9223;50.988;3.162;2023-06-22T12:45:11;20.05;;;13.93;;
18194;SDS011;9223;50.988;3.162;2023-06-22T12:51:19;18.90;;;13.88;;
18194;SDS011;9223;50.988;3.162;2023-06-22T12:57:23;17.17;;;13.18;;
18194;SDS011;9223;50.988;3.162;2023-06-22T13:03:28;17.60;;;12.13;;
18194;SDS011;9223;50.988;3.162;2023-06-22T13:09:32;16.55;;;12.02;;
18194;SDS011;9223;50.988;3.162;2023-06-22T13:15:36;24.02;;;12.60;;
18194;SDS011;9223;50.988;3.162;2023-06-22T13:21:41;14.00;;;11.80;;
18194;SDS011;9223;50.988;3.162;2023-06-22T13:27:45;13.55;;;11.27;;
18194;SDS011;9223;50.988;3.162;2023-06-22T13:33:48;12.73;;;10.55;;
18194;SDS011;9223;50.988;3.162;2023-06-22T13:39:55;13.63;;;11.40;;
18194;SDS011;9223;50.988;3.162;2023-06-22T13:46:01;15.38;;;11.25;;
18194;SDS011;9223;50.988;3.162;2023-06-22T13:52:05;17.40;;;12.18;;
18194;SDS011;9223;50.988;3.162;2023-06-22T13:58:12;16.00;;;11.55;;
18194;SDS011;9223;50.988;3.162;2023-06-22T14:04:16;12.82;;;10.32;;
18194;SDS011;9223;50.988;3.162;2023-06-22T14:10:19;12.23;;;9.68;;
18194;SDS011;9223;50.988;3.162;2023-06-22T14:16:24;13.88;;;9.70;;
18194;SDS011;9223;50.988;3.162;2023-06-22T14:22:28;14.23;;;10.20;;
18194;SDS011;9223;50.988;3.162;2023-06-22T14:28:32;9.98;;;7.63;;
18194;SDS011;9223;50.988;3.162;2023-06-22T14:34:37;10.45;;;7.38;;
18194;SDS011;9223;50.988;3.162;2023-06-22T14:40:41;7.18;;;5.88;;
18194;SDS011;9223;50.988;3.162;2023-06-22T14:47:05;10.57;;;8.02;;
18194;SDS011;9223;50.988;3.162;2023-06-22T14:53:10;11.63;;;8.63;;
18194;SDS011;9223;50.988;3.162;2023-06-22T14:59:14;11.63;;;9.35;;
18194;SDS011;9223;50.988;3.162;2023-06-22T15:05:17;12.65;;;10.50;;
18194;SDS011;9223;50.988;3.162;2023-06-22T15:11:22;11.18;;;8.75;;
18194;SDS011;9223;50.988;3.162;2023-06-22T15:17:26;11.25;;;9.07;;
18194;SDS011;9223;50.988;3.162;2023-06-22T15:23:32;13.95;;;10.07;;
18194;SDS011;9223;50.988;3.162;2023-06-22T15:29:37;10.27;;;7.55;;
18194;SDS011;9223;50.988;3.162;2023-06-22T15:35:41;9.77;;;7.82;;
18194;SDS011;9223;50.988;3.162;2023-06-22T15:41:44;17.17;;;12.02;;
18194;SDS011;9223;50.988;3.162;2023-06-22T15:47:49;16.90;;;13.25;;
18194;SDS011;9223;50.988;3.162;2023-06-22T15:53:53;15.80;;;12.30;;
18194;SDS011;9223;50.988;3.162;2023-06-22T15:59:59;17.92;;;12.38;;
18194;SDS011;9223;50.988;3.162;2023-06-22T16:06:04;17.50;;;14.45;;
18194;SDS011;9223;50.988;3.162;2023-06-22T16:12:08;14.60;;;11.98;;
18194;SDS011;9223;50.988;3.162;2023-06-22T16:18:11;13.00;;;10.23;;
18194;SDS011;9223;50.988;3.162;2023-06-22T16:24:16;15.25;;;11.90;;
18194;SDS011;9223;50.988;3.162;2023-06-22T16:30:20;13.32;;;10.90;;
18194;SDS011;9223;50.988;3.162;2023-06-22T16:36:23;12.55;;;10.27;;
18194;SDS011;9223;50.988;3.162;2023-06-22T16:42:28;20.60;;;16.90;;
18194;SDS011;9223;50.988;3.162;2023-06-22T16:48:32;16.00;;;11.27;;
18194;SDS011;9223;50.988;3.162;2023-06-22T16:54:36;12.73;;;10.93;;
18194;SDS011;9223;50.988;3.162;2023-06-22T17:00:54;15.68;;;13.90;;
18194;SDS011;9223;50.988;3.162;2023-06-22T17:06:58;16.38;;;13.80;;
18194;SDS011;9223;50.988;3.162;2023-06-22T17:13:03;22.50;;;18.80;;
18194;SDS011;9223;50.988;3.162;2023-06-22T17:19:11;13.50;;;10.98;;
18194;SDS011;9223;50.988;3.162;2023-06-22T17:25:16;17.27;;;12.32;;
18194;SDS011;9223;50.988;3.162;2023-06-22T17:31:20;13.73;;;10.35;;
18194;SDS011;9223;50.988;3.162;2023-06-22T17:37:27;14.50;;;11.48;;
18194;SDS011;9223;50.988;3.162;2023-06-22T17:43:44;12.32;;;10.48;;
18194;SDS011;9223;50.988;3.162;2023-06-22T17:49:48;11.88;;;10.45;;
18194;SDS011;9223;50.988;3.162;2023-06-22T17:55:53;13.98;;;11.85;;
18194;SDS011;9223;50.988;3.162;2023-06-22T18:01:57;11.80;;;9.10;;
18194;SDS011;9223;50.988;3.162;2023-06-22T18:08:09;12.45;;;9.48;;
18194;SDS011;9223;50.988;3.162;2023-06-22T18:14:15;9.40;;;8.30;;
18194;SDS011;9223;50.988;3.162;2023-06-22T18:20:19;14.98;;;12.07;;
18194;SDS011;9223;50.988;3.162;2023-06-22T18:26:23;15.88;;;12.02;;
18194;SDS011;9223;50.988;3.162;2023-06-22T18:32:29;9.40;;;8.15;;
18194;SDS011;9223;50.988;3.162;2023-06-22T18:38:32;18.73;;;14.95;;
18194;SDS011;9223;50.988;3.162;2023-06-22T18:44:39;17.27;;;14.00;;
18194;SDS011;9223;50.988;3.162;2023-06-22T18:50:45;17.63;;;12.88;;
18194;SDS011;9223;50.988;3.162;2023-06-22T18:56:54;12.70;;;10.30;;
18194;SDS011;9223;50.988;3.162;2023-06-22T19:02:58;11.18;;;7.97;;
18194;SDS011;9223;50.988;3.162;2023-06-22T19:09:15;11.20;;;7.97;;
18194;SDS011;9223;50.988;3.162;2023-06-22T19:15:21;13.25;;;10.80;;
18194;SDS011;9223;50.988;3.162;2023-06-22T19:21:24;11.52;;;8.18;;
18194;SDS011;9223;50.988;3.162;2023-06-22T19:27:30;12.68;;;10.90;;
18194;SDS011;9223;50.988;3.162;2023-06-22T19:33:34;11.45;;;8.25;;
18194;SDS011;9223;50.988;3.162;2023-06-22T19:39:38;6.60;;;5.03;;
18194;SDS011;9223;50.988;3.162;2023-06-22T19:45:44;7.75;;;6.15;;
18194;SDS011;9223;50.988;3.162;2023-06-22T19:51:48;7.88;;;6.53;;
18194;SDS011;9223;50.988;3.162;2023-06-22T19:57:51;14.93;;;10.50;;
18194;SDS011;9223;50.988;3.162;2023-06-22T20:03:56;7.68;;;6.88;;
18194;SDS011;9223;50.988;3.162;2023-06-22T20:10:04;10.63;;;9.00;;
18194;SDS011;9223;50.988;3.162;2023-06-22T20:16:09;12.00;;;9.30;;
18194;SDS011;9223;50.988;3.162;2023-06-22T20:22:14;16.85;;;13.38;;
18194;SDS011;9223;50.988;3.162;2023-06-22T20:28:17;20.80;;;14.90;;
18194;SDS011;9223;50.988;3.162;2023-06-22T20:34:21;17.73;;;14.10;;
18194;SDS011;9223;50.988;3.162;2023-06-22T20:40:26;20.70;;;14.93;;
18194;SDS011;9223;50.988;3.162;2023-06-22T20:46:30;15.50;;;12.18;;
18194;SDS011;9223;50.988;3.162;2023-06-22T20:52:33;16.48;;;11.90;;
18194;SDS011;9223;50.988;3.162;2023-06-22T20:58:38;14.73;;;11.50;;
18194;SDS011;9223;50.988;3.162;2023-06-22T21:04:42;8.30;;;6.72;;
18194;SDS011;9223;50.988;3.162;2023-06-22T21:10:45;12.45;;;8.98;;
18194;SDS011;9223;50.988;3.162;2023-06-22T21:16:51;12.85;;;10.95;;
18194;SDS011;9223;50.988;3.162;2023-06-22T21:22:54;6.20;;;5.20;;
18194;SDS011;9223;50.988;3.162;2023-06-22T21:28:58;18.38;;;14.77;;
18194;SDS011;9223;50.988;3.162;2023-06-22T21:35:03;10.52;;;7.25;;
18194;SDS011;9223;50.988;3.162;2023-06-22T21:41:07;17.73;;;14.90;;
18194;SDS011;9223;50.988;3.162;2023-06-22T21:47:10;11.82;;;8.90;;
18194;SDS011;9223;50.988;3.162;2023-06-22T21:53:17;7.93;;;7.10;;
18194;SDS011;9223;50.988;3.162;2023-06-22T21:59:26;13.00;;;10.48;;
18194;SDS011;9223;50.988;3.162;2023-06-22T22:05:30;12.20;;;9.57;;
18194;SDS011;9223;50.988;3.162;2023-06-22T22:11:35;14.60;;;11.82;;
18194;SDS011;9223;50.988;3.162;2023-06-22T22:17:39;12.52;;;9.60;;
18194;SDS011;9223;50.988;3.162;2023-06-22T22:23:42;18.67;;;14.18;;
18194;SDS011;9223;50.988;3.162;2023-06-22T22:29:47;12.45;;;10.60;;
18194;SDS011;9223;50.988;3.162;2023-06-22T22:35:51;17.60;;;13.50;;
18194;SDS011;9223;50.988;3.162;2023-06-22T22:41:54;23.50;;;17.85;;
18194;SDS011;9223;50.988;3.162;2023-06-22T22:47:59;15.02;;;11.05;;
18194;SDS011;9223;50.988;3.162;2023-06-22T22:54:03;24.58;;;18.48;;
18194;SDS011;9223;50.988;3.162;2023-06-22T23:00:09;21.35;;;17.33;;
18194;SDS011;9223;50.988;3.162;2023-06-22T23:06:15;26.05;;;20.80;;
18194;SDS011;9223;50.988;3.162;2023-06-22T23:12:18;26.13;;;22.42;;
18194;SDS011;9223;50.988;3.162;2023-06-22T23:18:22;25.40;;;20.40;;
18194;SDS011;9223;50.988;3.162;2023-06-22T23:24:27;27.92;;;23.10;;
18194;SDS011;9223;50.988;3.162;2023-06-22T23:30:32;27.60;;;21.70;;
18194;SDS011;9223;50.988;3.162;2023-06-22T23:36:37;29.90;;;23.75;;
18194;SDS011;9223;50.988;3.162;2023-06-22T23:42:41;31.35;;;25.95;;
18194;SDS011;9223;50.988;3.162;2023-06-22T23:48:48;34.63;;;26.75;;
18194;SDS011;9223;50.988;3.162;2023-06-22T23:54:52;33.78;;;28.30;;
